createdAt,value
2022-11-06T00:01:52.181Z,9.25
2022-11-06T00:06:51.504Z,9.22
2022-11-06T00:11:51.566Z,9.21
2022-11-06T00:16:51.570Z,9.21
2022-11-06T00:21:51.540Z,9.20
2022-11-06T00:26:54.352Z,9.15
2022-11-06T00:31:51.588Z,9.11
2022-11-06T00:36:51.619Z,9.12
2022-11-06T00:41:51.608Z,9.13
2022-11-06T00:46:51.657Z,9.17
2022-11-06T00:51:51.636Z,9.15
2022-11-06T00:56:51.893Z,9.14
2022-11-06T01:01:52.536Z,9.06
2022-11-06T01:06:53.620Z,9.03
2022-11-06T01:12:13.212Z,9.00
2022-11-06T01:16:51.896Z,8.97
2022-11-06T01:21:52.470Z,9.01
2022-11-06T01:27:12.182Z,9.04
2022-11-06T01:31:51.731Z,9.05
2022-11-06T01:36:52.003Z,9.09
2022-11-06T01:41:52.685Z,9.12
2022-11-06T01:46:51.769Z,9.13
2022-11-06T01:51:55.223Z,9.16
2022-11-06T01:56:55.474Z,9.16
2022-11-06T02:01:53.540Z,9.13
2022-11-06T02:06:52.312Z,9.17
2022-11-06T02:12:11.519Z,9.22
2022-11-06T02:16:59.061Z,9.20
2022-11-06T02:21:58.357Z,9.23
2022-11-06T02:27:01.816Z,9.24
2022-11-06T02:31:56.805Z,9.23
2022-11-06T02:37:00.160Z,9.28
2022-11-06T02:41:54.083Z,9.25
2022-11-06T02:46:56.185Z,9.30
2022-11-06T02:51:56.597Z,9.31
2022-11-06T02:56:56.559Z,9.30
2022-11-06T03:01:59.276Z,9.33
2022-11-06T03:07:00.653Z,9.36
2022-11-06T03:12:00.069Z,9.40
2022-11-06T03:16:56.595Z,9.39
2022-11-06T03:21:59.971Z,9.45
2022-11-06T03:26:53.301Z,9.45
2022-11-06T03:31:57.661Z,9.47
2022-11-06T03:37:01.578Z,9.53
2022-11-06T03:41:58.089Z,9.52
2022-11-06T03:46:56.823Z,9.52
2022-11-06T03:51:57.270Z,9.53
2022-11-06T03:56:56.287Z,9.51
2022-11-06T04:01:55.419Z,9.51
2022-11-06T04:06:57.017Z,9.52
2022-11-06T04:11:53.724Z,9.51
2022-11-06T04:16:56.663Z,9.52
2022-11-06T04:22:01.998Z,9.53
2022-11-06T04:26:55.344Z,9.54
2022-11-06T04:32:05.940Z,9.53
2022-11-06T04:37:12.058Z,9.53
2022-11-06T04:42:03.481Z,9.54
2022-11-06T04:46:57.138Z,9.55
2022-11-06T04:51:53.009Z,9.56
2022-11-06T04:56:57.234Z,9.53
2022-11-06T05:01:53.102Z,9.54
2022-11-06T05:06:52.193Z,9.51
2022-11-06T05:11:52.221Z,9.52
2022-11-06T05:16:52.241Z,9.49
2022-11-06T05:21:52.266Z,9.46
2022-11-06T05:26:57.832Z,9.42
2022-11-06T05:31:52.297Z,9.42
2022-11-06T05:36:52.264Z,9.41
2022-11-06T05:41:52.334Z,9.37
2022-11-06T05:46:52.322Z,9.36
2022-11-06T05:51:52.327Z,9.35
2022-11-06T05:56:52.321Z,9.34
2022-11-06T06:01:52.852Z,9.33
2022-11-06T06:06:52.391Z,9.39
2022-11-06T06:11:53.051Z,9.38
2022-11-06T06:16:52.352Z,9.38
2022-11-06T06:21:52.347Z,9.43
2022-11-06T06:26:52.377Z,9.45
2022-11-06T06:31:52.465Z,9.49
2022-11-06T06:36:52.960Z,9.52
2022-11-06T06:41:52.513Z,9.53
2022-11-06T06:46:52.523Z,9.55
2022-11-06T06:51:52.451Z,9.55
2022-11-06T06:56:52.486Z,9.60
2022-11-06T07:01:54.250Z,9.58
2022-11-06T07:06:52.892Z,9.65
2022-11-06T07:11:52.509Z,9.70
2022-11-06T07:16:53.890Z,9.74
2022-11-06T07:21:52.726Z,9.79
2022-11-06T07:26:52.504Z,9.84
2022-11-06T07:31:52.571Z,9.91
2022-11-06T07:36:52.527Z,9.98
2022-11-06T07:41:52.571Z,9.95
2022-11-06T07:46:52.550Z,9.97
2022-11-06T07:51:52.580Z,9.99
2022-11-06T07:56:52.589Z,10.08
2022-11-06T08:01:53.210Z,10.13
2022-11-06T08:06:52.584Z,10.11
2022-11-06T08:11:52.626Z,10.08
2022-11-06T08:16:52.613Z,10.08
2022-11-06T08:21:52.687Z,10.18
2022-11-06T08:26:52.662Z,10.22
2022-11-06T08:31:52.765Z,10.27
2022-11-06T08:36:52.662Z,10.30
2022-11-06T08:41:52.689Z,10.63
2022-11-06T08:46:52.672Z,10.98
2022-11-06T08:51:52.717Z,10.96
2022-11-06T08:56:52.711Z,10.92
2022-11-06T09:01:53.441Z,10.94
2022-11-06T09:06:52.904Z,11.72
2022-11-06T09:11:52.762Z,12.84
2022-11-06T09:16:52.987Z,13.05
2022-11-06T09:21:54.892Z,12.78
2022-11-06T09:26:52.763Z,12.61
2022-11-06T09:31:52.809Z,12.43
2022-11-06T09:36:52.795Z,12.18
2022-11-06T09:41:58.659Z,12.08
2022-11-06T09:51:59.430Z,11.93
2022-11-06T09:57:01.690Z,11.83
2022-11-06T10:01:58.636Z,11.78
2022-11-06T10:06:52.874Z,11.74
2022-11-06T10:12:11.409Z,11.66
2022-11-06T10:16:58.632Z,11.63
2022-11-06T10:22:10.216Z,11.66
2022-11-06T10:26:55.550Z,11.71
2022-11-06T10:32:06.164Z,11.79
2022-11-06T10:36:59.191Z,11.87
2022-11-06T10:42:00.706Z,12.06
2022-11-06T10:47:02.523Z,12.22
2022-11-06T10:52:12.885Z,12.55
2022-11-06T10:57:04.351Z,12.61
2022-11-06T11:01:54.085Z,12.72
2022-11-06T11:06:53.011Z,14.10
2022-11-06T11:11:53.114Z,14.13
2022-11-06T11:16:54.213Z,13.48
2022-11-06T11:21:55.403Z,13.03
2022-11-06T11:26:59.073Z,13.03
2022-11-06T11:31:56.920Z,13.00
2022-11-06T11:36:55.842Z,12.86
2022-11-06T11:41:53.239Z,12.68
2022-11-06T11:46:53.758Z,12.66
2022-11-06T11:51:54.067Z,12.77
2022-11-06T11:57:05.748Z,12.94
2022-11-06T12:01:56.376Z,12.93
2022-11-06T12:07:03.118Z,12.77
2022-11-06T12:11:55.939Z,12.72
2022-11-06T12:16:57.896Z,12.61
2022-11-06T12:21:57.801Z,12.57
2022-11-06T12:26:57.395Z,12.50
2022-11-06T12:31:59.674Z,12.42
2022-11-06T12:37:10.022Z,12.34
2022-11-06T12:41:54.886Z,12.35
2022-11-06T12:47:04.219Z,12.07
2022-11-06T12:52:00.003Z,11.99
2022-11-06T12:57:02.278Z,11.93
2022-11-06T13:02:10.361Z,11.94
2022-11-06T13:07:00.613Z,11.94
2022-11-06T13:12:06.371Z,11.86
2022-11-06T13:17:03.602Z,11.73
2022-11-06T13:22:04.256Z,11.69
2022-11-06T13:27:02.903Z,11.58
2022-11-06T13:31:58.494Z,11.55
2022-11-06T13:36:54.068Z,11.41
2022-11-06T13:41:54.691Z,11.28
2022-11-06T13:47:03.729Z,11.14
2022-11-06T13:51:56.754Z,11.11
2022-11-06T13:57:13.300Z,11.01
2022-11-06T14:02:03.967Z,10.89
2022-11-06T14:06:57.299Z,10.79
2022-11-06T14:11:56.172Z,10.71
2022-11-06T14:17:13.343Z,10.50
2022-11-06T14:22:04.003Z,10.37
2022-11-06T14:26:54.254Z,10.19
2022-11-06T14:32:06.687Z,9.99
2022-11-06T14:36:53.486Z,9.82
2022-11-06T14:41:54.420Z,9.67
2022-11-06T14:46:57.833Z,9.54
2022-11-06T14:52:06.201Z,9.44
2022-11-06T14:56:54.060Z,9.34
2022-11-06T15:01:59.577Z,9.23
2022-11-06T15:06:53.955Z,9.12
2022-11-06T15:11:54.963Z,9.02
2022-11-06T15:17:01.748Z,9.02
2022-11-06T15:22:02.007Z,8.87
2022-11-06T15:26:57.147Z,8.80
2022-11-06T15:32:01.329Z,8.76
2022-11-06T15:37:05.218Z,8.64
2022-11-06T15:41:54.313Z,8.55
2022-11-06T15:46:56.893Z,8.48
2022-11-06T15:56:53.753Z,8.38
2022-11-06T16:01:54.448Z,8.28
2022-11-06T16:06:55.961Z,8.21
2022-11-06T16:11:55.020Z,8.12
2022-11-06T16:16:55.854Z,8.09
2022-11-06T16:21:59.541Z,8.02
2022-11-06T16:26:54.023Z,7.96
2022-11-06T16:31:59.192Z,7.92
2022-11-06T16:36:59.545Z,7.90
2022-11-06T16:41:57.027Z,7.89
2022-11-06T16:47:03.745Z,7.90
2022-11-06T16:51:53.842Z,7.88
2022-11-06T16:56:54.660Z,7.82
2022-11-06T17:06:54.802Z,7.71
2022-11-06T17:11:56.338Z,7.68
2022-11-06T17:16:56.467Z,7.65
2022-11-06T17:21:53.984Z,7.66
2022-11-06T17:26:53.860Z,7.69
2022-11-06T17:31:53.875Z,7.68
2022-11-06T17:36:53.922Z,7.69
2022-11-06T17:41:53.885Z,7.72
2022-11-06T17:46:53.919Z,7.76
2022-11-06T17:51:53.939Z,7.80
2022-11-06T17:56:55.287Z,7.86
2022-11-06T18:01:55.690Z,7.90
2022-11-06T18:06:53.961Z,7.96
2022-11-06T18:11:54.852Z,8.00
2022-11-06T18:16:53.995Z,8.03
2022-11-06T18:21:54.747Z,8.06
2022-11-06T18:26:53.987Z,8.14
2022-11-06T18:31:54.025Z,8.21
2022-11-06T18:36:54.055Z,8.22
2022-11-06T18:41:56.377Z,8.24
2022-11-06T18:46:54.027Z,8.27
2022-11-06T18:51:54.055Z,8.29
2022-11-06T18:56:54.172Z,8.30
2022-11-06T19:01:54.802Z,8.37
2022-11-06T19:06:54.106Z,8.40
2022-11-06T19:11:54.157Z,8.43
2022-11-06T19:16:54.922Z,8.50
2022-11-06T19:21:54.124Z,8.51
2022-11-06T19:26:54.170Z,8.50
2022-11-06T19:31:54.147Z,8.45
2022-11-06T19:36:54.920Z,8.47
2022-11-06T19:41:54.145Z,8.51
2022-11-06T19:46:54.185Z,8.53
2022-11-06T19:51:54.188Z,8.59
2022-11-06T19:57:28.340Z,8.66
2022-11-06T20:01:54.776Z,8.75
2022-11-06T20:06:54.209Z,8.83
2022-11-06T20:11:54.298Z,8.91
2022-11-06T20:16:54.400Z,8.98
2022-11-06T20:21:54.248Z,9.08
2022-11-06T20:26:54.294Z,9.15
2022-11-06T20:31:54.259Z,9.23
2022-11-06T20:36:54.281Z,9.29
2022-11-06T20:41:54.340Z,9.38
2022-11-06T20:46:54.346Z,9.46
2022-11-06T20:52:13.342Z,9.56
2022-11-06T20:56:54.337Z,9.63
2022-11-06T21:01:55.771Z,9.69
2022-11-06T21:06:54.343Z,9.73
2022-11-06T21:11:54.368Z,9.76
2022-11-06T21:16:54.505Z,9.74
2022-11-06T21:21:54.695Z,9.76
2022-11-06T21:26:54.433Z,9.75
2022-11-06T21:31:54.414Z,9.84
2022-11-06T21:36:59.638Z,9.89
2022-11-06T21:41:54.437Z,9.94
2022-11-06T21:46:54.455Z,9.97
2022-11-06T21:51:54.439Z,10.06
2022-11-06T21:56:54.615Z,10.09
2022-11-06T22:01:56.036Z,10.15
2022-11-06T22:06:54.464Z,10.22
2022-11-06T22:11:54.538Z,10.20
2022-11-06T22:16:54.516Z,10.25
2022-11-06T22:21:54.518Z,10.27
2022-11-06T22:26:54.532Z,10.27
2022-11-06T22:31:54.638Z,10.32
2022-11-06T22:36:54.542Z,10.30
2022-11-06T22:41:54.599Z,10.29
2022-11-06T22:46:54.564Z,10.36
2022-11-06T22:51:54.603Z,10.32
2022-11-06T22:56:54.604Z,10.30
2022-11-06T23:01:56.347Z,10.34
2022-11-06T23:06:54.626Z,10.35
2022-11-06T23:11:54.651Z,10.30
2022-11-06T23:16:54.866Z,10.30
2022-11-06T23:21:54.937Z,10.38
2022-11-06T23:26:54.656Z,10.46
2022-11-06T23:31:54.695Z,10.45
2022-11-06T23:36:54.694Z,10.47
2022-11-06T23:41:54.734Z,10.53
2022-11-06T23:46:54.818Z,10.52
2022-11-06T23:51:54.724Z,10.46
2022-11-06T23:56:54.880Z,10.44
